Time;durP1;ratioP1;P1;durP2;ratioP2;P2;SDS_P1;SDS_P2;PMS_P1;PMS_P2;Temp;Humidity;BMP_temperature;BMP_pressure;BME280_temperature;BME280_humidity;BME280_pressure;Samples;Min_cycle;Max_cycle;Signal;HPM_P1;HPM_P2
2021/12/16 00:02:08;;;;;;;4.83;1.60;;;;;;;;;;4953201;28;20322;-60
2021/12/16 00:07:22;;;;;;;2.77;1.43;;;;;;;;;;4970619;28;20062;-60
2021/12/16 00:29:15;;;;;;;;;;;;;;;;;;4969825;28;20050;-60
2021/12/16 00:34:19;;;;;;;4.97;2.47;;;;;;;;;;4973613;28;20046;-60
2021/12/16 00:36:46;;;;;;;9.73;3.07;;;;;;;;;;4974101;28;20031;-60
2021/12/16 00:39:15;;;;;;;11.73;2.90;;;;;;;;;;4973861;28;20086;-60
2021/12/16 00:41:44;;;;;;;7.17;2.37;;;;;;;;;;4972706;28;20418;-60
2021/12/16 00:47:12;;;;;;;3.88;1.60;;;;;;;;;;4968761;28;20545;-60
2021/12/16 00:49:46;;;;;;;5.93;2.23;;;;;;;;;;4968311;28;20470;-60
2021/12/16 00:55:13;;;;;;;6.73;2.80;;;;;;;;;;4973517;28;20053;-60
2021/12/16 00:57:42;;;;;;;7.23;2.43;;;;;;;;;;4973088;28;20038;-60
2021/12/16 01:00:13;;;;;;;8.07;3.57;;;;;;;;;;4973467;28;20035;-59
2021/12/16 01:08:08;;;;;;;6.20;2.73;;;;;;;;;;4968713;28;20039;-60
2021/12/16 01:35:40;;;;;;;8.27;1.90;;;;;;;;;;4971721;28;20050;-60
2021/12/16 01:39:09;;;;;;;32.37;4.33;;;;;;;;;;4976747;28;20122;-60
2021/12/16 01:49:15;;;;;;;11.80;2.97;;;;;;;;;;4959460;28;20034;-61
2021/12/16 01:52:02;;;;;;;3.45;1.48;;;;;;;;;;4952891;29;20020;-60
2021/12/16 01:54:54;;;;;;;4.50;1.40;;;;;;;;;;4960507;28;20450;-59
2021/12/16 01:57:31;;;;;;;5.30;1.60;;;;;;;;;;4971178;28;20077;-59
2021/12/16 02:00:06;;;;;;;12.30;1.67;;;;;;;;;;4974583;28;20035;-60
2021/12/16 02:02:43;;;;;;;7.88;1.90;;;;;;;;;;4976507;28;20042;-60
2021/12/16 02:10:38;;;;;;;4.97;1.75;;;;;;;;;;4976185;28;20031;-60
2021/12/16 02:13:31;;;;;;;4.90;2.30;;;;;;;;;;4971297;28;20031;-60
2021/12/16 02:27:26;;;;;;;;;;;;;;;;;;4971805;28;20106;-59
2021/12/16 02:37:32;;;;;;;6.97;2.20;;;;;;;;;;4968637;28;20442;-59
2021/12/16 02:39:59;;;;;;;4.73;2.10;;;;;;;;;;4968153;28;20034;-59
2021/12/16 02:42:54;;;;;;;7.70;2.30;;;;;;;;;;4970277;28;20496;-60
2021/12/16 02:50:53;;;;;;;9.77;3.53;;;;;;;;;;4974933;28;20069;-59
2021/12/16 02:53:20;;;;;;;7.30;3.90;;;;;;;;;;4975068;28;20181;-59
2021/12/16 02:55:47;;;;;;;6.37;3.07;;;;;;;;;;4973438;28;20137;-59
2021/12/16 02:58:14;;;;;;;9.73;2.90;;;;;;;;;;4969971;28;20104;-59
2021/12/16 03:00:43;;;;;;;11.97;4.43;;;;;;;;;;4970346;28;20028;-59
2021/12/16 03:03:10;;;;;;;21.10;9.30;;;;;;;;;;4970835;28;20023;-60
2021/12/16 03:05:38;;;;;;;15.03;7.20;;;;;;;;;;4971056;28;20078;-59
2021/12/16 03:08:06;;;;;;;11.40;4.97;;;;;;;;;;4975217;28;20489;-59
2021/12/16 03:16:06;;;;;;;15.23;4.85;;;;;;;;;;4975343;28;20000;-59
2021/12/16 03:18:52;;;;;;;11.33;6.37;;;;;;;;;;4973120;28;20023;-59
2021/12/16 03:21:28;;;;;;;15.87;5.23;;;;;;;;;;4951338;29;20479;-59
2021/12/16 03:34:37;;;;;;;10.50;5.33;;;;;;;;;;4974643;28;20442;-61
2021/12/16 03:39:40;;;;;;;20.13;7.13;;;;;;;;;;4974728;28;20053;-61
2021/12/16 03:42:07;;;;;;;17.50;8.13;;;;;;;;;;4969937;28;20023;-61
2021/12/16 03:44:55;;;;;;;15.53;5.80;;;;;;;;;;4969641;28;20110;-62
2021/12/16 03:47:25;;;;;;;7.83;4.37;;;;;;;;;;4969588;28;20034;-61
2021/12/16 03:49:52;;;;;;;10.60;4.30;;;;;;;;;;4969395;28;20038;-62
2021/12/16 03:52:19;;;;;;;10.13;4.77;;;;;;;;;;4974485;28;20031;-63
2021/12/16 03:54:51;;;;;;;6.77;4.10;;;;;;;;;;4974626;28;20023;-60
2021/12/16 03:57:20;;;;;;;6.73;4.27;;;;;;;;;;4974193;28;20058;-61
2021/12/16 03:59:48;;;;;;;10.57;4.50;;;;;;;;;;4974498;28;20405;-60
2021/12/16 04:02:17;;;;;;;7.57;3.90;;;;;;;;;;4973305;28;20019;-60
2021/12/16 04:04:44;;;;;;;4.63;2.73;;;;;;;;;;4969769;28;20453;-60
2021/12/16 04:07:11;;;;;;;7.10;3.43;;;;;;;;;;4969355;28;20035;-58
2021/12/16 04:09:38;;;;;;;5.87;3.20;;;;;;;;;;4969590;28;20023;-58
2021/12/16 04:12:11;;;;;;;9.73;3.50;;;;;;;;;;4969145;28;20058;-58
2021/12/16 04:14:39;;;;;;;11.53;4.63;;;;;;;;;;4973868;28;20101;-58
2021/12/16 04:17:07;;;;;;;9.43;5.97;;;;;;;;;;4974209;28;20035;-58
2021/12/16 04:19:35;;;;;;;5.83;2.83;;;;;;;;;;4974433;28;20031;-59
2021/12/16 04:22:05;;;;;;;9.97;3.13;;;;;;;;;;4973920;28;20027;-58
2021/12/16 04:24:33;;;;;;;8.47;3.20;;;;;;;;;;4973750;28;20030;-59
2021/12/16 04:27:00;;;;;;;5.00;3.00;;;;;;;;;;4969174;28;20030;-61
2021/12/16 04:29:27;;;;;;;8.60;3.63;;;;;;;;;;4968828;28;20019;-60
2021/12/16 04:31:55;;;;;;;6.93;3.23;;;;;;;;;;4968780;28;20038;-59
2021/12/16 04:34:22;;;;;;;7.83;3.20;;;;;;;;;;4968637;28;20027;-60
2021/12/16 04:36:49;;;;;;;9.30;3.37;;;;;;;;;;4973416;28;20062;-60
2021/12/16 04:39:18;;;;;;;8.73;3.53;;;;;;;;;;4973834;28;20139;-58
2021/12/16 04:41:45;;;;;;;7.40;3.20;;;;;;;;;;4973756;28;20035;-60
2021/12/16 04:44:12;;;;;;;8.33;2.80;;;;;;;;;;4973389;28;20138;-58
2021/12/16 04:46:39;;;;;;;5.50;3.10;;;;;;;;;;4973988;28;20026;-59
2021/12/16 04:49:07;;;;;;;14.07;4.03;;;;;;;;;;4967856;28;20030;-59
2021/12/16 04:51:36;;;;;;;5.17;2.80;;;;;;;;;;4966754;28;20018;-60
2021/12/16 04:54:03;;;;;;;7.90;3.17;;;;;;;;;;4966876;28;20101;-59
2021/12/16 04:56:31;;;;;;;8.80;2.67;;;;;;;;;;4966295;28;20030;-59
2021/12/16 04:58:58;;;;;;;7.20;3.10;;;;;;;;;;4970743;28;20442;-60
2021/12/16 05:01:25;;;;;;;5.53;2.50;;;;;;;;;;4971219;28;20098;-60
2021/12/16 05:03:53;;;;;;;12.20;3.17;;;;;;;;;;4971628;28;20130;-58
2021/12/16 05:06:20;;;;;;;6.30;2.70;;;;;;;;;;4971002;28;20023;-58
2021/12/16 05:08:46;;;;;;;12.47;3.30;;;;;;;;;;4973216;28;20054;-59
2021/12/16 05:11:17;;;;;;;11.83;2.57;;;;;;;;;;4968331;28;20046;-59
2021/12/16 05:13:44;;;;;;;4.83;2.37;;;;;;;;;;4968442;28;20061;-59
2021/12/16 05:16:12;;;;;;;5.03;2.77;;;;;;;;;;4967852;28;20023;-59
2021/12/16 05:18:39;;;;;;;9.03;2.30;;;;;;;;;;4968168;28;20045;-59
2021/12/16 05:21:37;;;;;;;6.07;3.13;;;;;;;;;;4972049;28;20525;-59
2021/12/16 05:26:40;;;;;;;4.13;1.70;;;;;;;;;;4973104;28;20042;-59
2021/12/16 05:29:07;;;;;;;5.27;1.80;;;;;;;;;;4973277;28;20051;-59
2021/12/16 05:31:34;;;;;;;8.10;2.30;;;;;;;;;;4972217;28;20031;-59
2021/12/16 05:34:01;;;;;;;6.93;2.10;;;;;;;;;;4967923;28;20041;-59
2021/12/16 05:36:29;;;;;;;4.60;1.50;;;;;;;;;;4967852;28;20031;-59
2021/12/16 05:38:58;;;;;;;5.97;1.87;;;;;;;;;;4967816;28;20077;-59
2021/12/16 05:41:25;;;;;;;5.10;2.03;;;;;;;;;;4968061;28;20035;-59
2021/12/16 05:43:52;;;;;;;4.37;2.67;;;;;;;;;;4973053;28;20065;-58
2021/12/16 05:46:20;;;;;;;7.33;2.20;;;;;;;;;;4972943;28;20374;-59
2021/12/16 05:48:48;;;;;;;5.10;1.83;;;;;;;;;;4972921;28;20034;-59
2021/12/16 05:51:17;;;;;;;5.43;2.30;;;;;;;;;;4972926;28;20069;-58
2021/12/16 05:53:45;;;;;;;5.73;1.90;;;;;;;;;;4972120;28;20118;-59
2021/12/16 05:56:12;;;;;;;3.57;1.60;;;;;;;;;;4967637;28;20031;-59
2021/12/16 05:58:38;;;;;;;5.13;1.83;;;;;;;;;;4967814;28;20081;-59
2021/12/16 06:01:07;;;;;;;7.67;2.07;;;;;;;;;;4970447;28;20019;-59
2021/12/16 06:03:35;;;;;;;3.53;2.00;;;;;;;;;;4971097;28;20031;-59
2021/12/16 06:06:02;;;;;;;5.70;2.47;;;;;;;;;;4975952;28;20102;-59
2021/12/16 06:08:29;;;;;;;3.40;2.00;;;;;;;;;;4975991;28;20102;-59
2021/12/16 06:13:36;;;;;;;3.10;1.50;;;;;;;;;;4976360;28;20070;-58
2021/12/16 06:29:26;;;;;;;2.97;1.60;;;;;;;;;;4975989;28;20043;-58
2021/12/16 06:31:53;;;;;;;3.00;1.70;;;;;;;;;;4975922;28;20025;-59
2021/12/16 06:34:21;;;;;;;2.80;1.67;;;;;;;;;;4976052;28;20026;-59
2021/12/16 06:36:47;;;;;;;2.90;1.50;;;;;;;;;;4974991;28;20023;-58
2021/12/16 06:39:14;;;;;;;4.77;2.03;;;;;;;;;;4972870;28;20050;-58
2021/12/16 06:41:41;;;;;;;3.87;1.43;;;;;;;;;;4970429;28;20023;-59
2021/12/16 06:44:17;;;;;;;2.10;1.17;;;;;;;;;;4970674;28;20767;-57
2021/12/16 06:46:46;;;;;;;3.13;1.77;;;;;;;;;;4970639;28;20556;-59
2021/12/16 06:49:15;;;;;;;2.37;1.70;;;;;;;;;;4973200;28;20038;-59
2021/12/16 06:54:20;;;;;;;3.53;1.77;;;;;;;;;;4975474;28;20035;-59
2021/12/16 06:57:00;;;;;;;2.80;1.65;;;;;;;;;;4975609;28;21648;-58
2021/12/16 06:59:31;;;;;;;2.77;1.10;;;;;;;;;;4975546;28;20030;-58
2021/12/16 07:04:32;;;;;;;5.63;1.90;;;;;;;;;;4970619;28;20054;-59
2021/12/16 07:06:59;;;;;;;5.47;1.93;;;;;;;;;;4969994;28;20611;-58
2021/12/16 07:09:25;;;;;;;3.17;1.60;;;;;;;;;;4969951;28;20423;-58
2021/12/16 07:11:56;;;;;;;3.10;1.47;;;;;;;;;;4972945;28;20276;-58
2021/12/16 07:14:34;;;;;;;3.27;1.70;;;;;;;;;;4975115;28;20529;-58
2021/12/16 07:17:02;;;;;;;3.90;1.60;;;;;;;;;;4975267;28;20027;-58
2021/12/16 07:19:29;;;;;;;5.40;1.40;;;;;;;;;;4975377;28;20042;-58
2021/12/16 07:21:56;;;;;;;3.37;1.73;;;;;;;;;;4974958;28;20272;-58
2021/12/16 07:24:23;;;;;;;2.97;1.80;;;;;;;;;;4970911;28;20467;-59
2021/12/16 07:26:50;;;;;;;3.50;1.80;;;;;;;;;;4969553;28;20874;-58
2021/12/16 07:29:17;;;;;;;7.40;1.50;;;;;;;;;;4969801;28;20292;-58
2021/12/16 07:31:44;;;;;;;2.93;1.70;;;;;;;;;;4969645;28;20034;-58
2021/12/16 07:34:11;;;;;;;3.03;1.70;;;;;;;;;;4973510;28;20265;-58
2021/12/16 07:36:40;;;;;;;3.97;1.80;;;;;;;;;;4975007;28;20756;-58
2021/12/16 07:39:08;;;;;;;3.00;1.30;;;;;;;;;;4974667;28;20299;-58
2021/12/16 07:41:38;;;;;;;3.20;1.40;;;;;;;;;;4974219;28;20296;-58
2021/12/16 07:44:12;;;;;;;3.10;1.77;;;;;;;;;;4974624;28;20113;-58
2021/12/16 07:46:40;;;;;;;3.43;1.47;;;;;;;;;;4969957;28;20283;-59
2021/12/16 07:49:08;;;;;;;3.10;1.53;;;;;;;;;;4969816;28;20331;-58
2021/12/16 07:51:35;;;;;;;3.80;2.27;;;;;;;;;;4969441;28;20827;-59
2021/12/16 07:54:02;;;;;;;3.50;1.23;;;;;;;;;;4969459;28;20268;-58
2021/12/16 07:56:28;;;;;;;4.13;1.60;;;;;;;;;;4972875;28;20351;-58
2021/12/16 07:58:55;;;;;;;4.10;1.90;;;;;;;;;;4974033;28;20297;-58
2021/12/16 08:01:23;;;;;;;3.17;1.70;;;;;;;;;;4974417;28;20276;-58
2021/12/16 08:03:50;;;;;;;2.47;1.53;;;;;;;;;;4974315;28;20268;-58
2021/12/16 08:06:21;;;;;;;2.83;1.63;;;;;;;;;;4974313;28;20269;-58
2021/12/16 08:08:49;;;;;;;3.83;1.87;;;;;;;;;;4950495;29;20257;-59
2021/12/16 08:11:16;;;;;;;3.63;1.73;;;;;;;;;;4958155;28;20273;-58
2021/12/16 08:13:43;;;;;;;3.27;1.50;;;;;;;;;;4968932;28;20276;-58
2021/12/16 08:16:10;;;;;;;3.57;1.43;;;;;;;;;;4968878;28;20268;-58
2021/12/16 08:18:37;;;;;;;2.70;1.43;;;;;;;;;;4972712;28;20771;-58
2021/12/16 08:21:04;;;;;;;3.23;1.47;;;;;;;;;;4974039;28;20826;-58
2021/12/16 08:23:31;;;;;;;2.73;1.80;;;;;;;;;;4973172;28;20337;-58
2021/12/16 08:25:58;;;;;;;4.00;1.93;;;;;;;;;;4973375;28;20291;-58
2021/12/16 08:28:27;;;;;;;2.67;1.60;;;;;;;;;;4973921;28;21050;-58
2021/12/16 08:30:54;;;;;;;3.80;2.00;;;;;;;;;;4969564;28;20280;-58
2021/12/16 08:33:21;;;;;;;3.63;1.93;;;;;;;;;;4968681;28;20273;-58
2021/12/16 08:35:50;;;;;;;4.53;2.13;;;;;;;;;;4968831;28;20284;-59
2021/12/16 08:38:18;;;;;;;2.83;1.80;;;;;;;;;;4968466;28;20768;-58
2021/12/16 08:40:47;;;;;;;2.53;1.63;;;;;;;;;;4972204;28;20261;-58
2021/12/16 08:43:14;;;;;;;3.47;1.70;;;;;;;;;;4973753;28;20272;-59
2021/12/16 08:45:42;;;;;;;3.10;1.80;;;;;;;;;;4973631;28;20268;-58
2021/12/16 08:48:09;;;;;;;4.70;2.00;;;;;;;;;;4973688;28;20275;-58
2021/12/16 08:50:37;;;;;;;4.57;2.00;;;;;;;;;;4973666;28;20319;-58
2021/12/16 08:53:05;;;;;;;2.90;1.67;;;;;;;;;;4969255;28;20347;-58
2021/12/16 08:55:33;;;;;;;4.00;2.00;;;;;;;;;;4968206;28;20277;-58
2021/12/16 08:58:00;;;;;;;4.43;1.47;;;;;;;;;;4968208;28;20296;-58
2021/12/16 09:00:29;;;;;;;5.03;1.60;;;;;;;;;;4968566;28;20272;-58
2021/12/16 09:02:56;;;;;;;3.10;1.73;;;;;;;;;;4971386;28;20260;-58
2021/12/16 09:05:24;;;;;;;3.77;1.60;;;;;;;;;;4973614;28;20265;-58
2021/12/16 09:07:51;;;;;;;3.73;2.10;;;;;;;;;;4972899;28;20292;-58
2021/12/16 09:10:22;;;;;;;3.10;1.80;;;;;;;;;;4973440;28;20253;-58
2021/12/16 09:12:54;;;;;;;5.00;1.50;;;;;;;;;;4973393;28;20787;-58
2021/12/16 09:15:23;;;;;;;3.60;1.90;;;;;;;;;;4968992;28;20606;-58
2021/12/16 09:17:50;;;;;;;6.30;2.43;;;;;;;;;;4968163;28;20768;-59
2021/12/16 09:20:17;;;;;;;4.00;1.83;;;;;;;;;;4967923;28;20279;-58
2021/12/16 09:22:44;;;;;;;2.47;1.50;;;;;;;;;;4967425;28;20292;-58
2021/12/16 09:25:12;;;;;;;3.17;1.60;;;;;;;;;;4971977;28;20260;-58
2021/12/16 09:27:40;;;;;;;3.97;2.20;;;;;;;;;;4973084;28;20696;-58
2021/12/16 09:30:08;;;;;;;2.60;1.50;;;;;;;;;;4973430;28;20264;-58
2021/12/16 09:32:35;;;;;;;2.70;1.60;;;;;;;;;;4973302;28;20304;-58
2021/12/16 09:35:02;;;;;;;3.50;2.00;;;;;;;;;;4973883;28;20304;-58
2021/12/16 09:37:29;;;;;;;2.57;1.73;;;;;;;;;;4972445;28;20751;-59
2021/12/16 09:39:56;;;;;;;5.00;1.83;;;;;;;;;;4971923;28;20273;-58
2021/12/16 09:42:26;;;;;;;2.00;1.20;;;;;;;;;;4971847;28;20822;-58
2021/12/16 09:44:54;;;;;;;2.50;1.63;;;;;;;;;;4971405;28;20343;-58
2021/12/16 09:47:26;;;;;;;2.90;2.00;;;;;;;;;;4975390;28;20356;-58
2021/12/16 09:49:53;;;;;;;3.73;1.87;;;;;;;;;;4976340;28;20364;-58
2021/12/16 09:52:20;;;;;;;3.17;1.90;;;;;;;;;;4976431;28;20268;-58
2021/12/16 09:54:47;;;;;;;4.27;1.80;;;;;;;;;;4977045;28;20261;-58
2021/12/16 09:57:15;;;;;;;3.73;2.10;;;;;;;;;;4976723;28;20276;-58
2021/12/16 09:59:42;;;;;;;3.20;2.00;;;;;;;;;;4972524;28;20786;-58
2021/12/16 10:02:15;;;;;;;4.33;1.80;;;;;;;;;;4971093;28;20265;-58
2021/12/16 10:04:42;;;;;;;3.97;1.70;;;;;;;;;;4971321;28;20272;-58
2021/12/16 10:07:19;;;;;;;3.20;1.50;;;;;;;;;;4971080;28;20706;-58
2021/12/16 10:09:47;;;;;;;4.43;1.70;;;;;;;;;;4975376;28;20261;-58
2021/12/16 10:12:18;;;;;;;5.23;1.97;;;;;;;;;;4976131;28;20279;-58
2021/12/16 10:17:29;;;;;;;5.00;2.00;;;;;;;;;;4975597;28;20265;-58
2021/12/16 10:19:58;;;;;;;4.90;1.80;;;;;;;;;;4976492;28;20269;-58
2021/12/16 10:22:33;;;;;;;4.20;1.80;;;;;;;;;;4971070;28;20291;-58
2021/12/16 10:25:18;;;;;;;4.35;2.00;;;;;;;;;;4971024;28;20276;-58
2021/12/16 10:27:56;;;;;;;2.80;1.60;;;;;;;;;;4971026;28;20110;-58
2021/12/16 10:30:24;;;;;;;5.27;1.93;;;;;;;;;;4971660;28;20027;-58
2021/12/16 10:32:51;;;;;;;3.30;1.90;;;;;;;;;;4976106;28;20265;-58
2021/12/16 10:35:20;;;;;;;3.40;1.70;;;;;;;;;;4975680;28;20288;-58
2021/12/16 10:37:52;;;;;;;3.20;1.93;;;;;;;;;;4975916;28;20319;-58
2021/12/16 10:40:37;;;;;;;2.87;1.53;;;;;;;;;;4975953;28;20276;-58
2021/12/16 10:43:07;;;;;;;3.00;1.83;;;;;;;;;;4973992;28;20269;-58
2021/12/16 10:45:40;;;;;;;3.47;1.47;;;;;;;;;;4970136;28;20034;-58
2021/12/16 10:48:11;;;;;;;4.13;2.50;;;;;;;;;;4969762;28;21002;-58
2021/12/16 10:50:52;;;;;;;3.50;2.20;;;;;;;;;;4970161;28;20296;-58
2021/12/16 10:53:39;;;;;;;7.27;2.20;;;;;;;;;;4972519;28;20272;-58
2021/12/16 10:56:05;;;;;;;2.60;1.53;;;;;;;;;;4975736;28;20340;-58
2021/12/16 10:58:51;;;;;;;2.90;1.80;;;;;;;;;;4975538;28;20289;-58
2021/12/16 11:01:35;;;;;;;2.67;1.60;;;;;;;;;;4975845;28;20265;-58
2021/12/16 11:04:04;;;;;;;3.73;2.10;;;;;;;;;;4975861;28;20084;-58
2021/12/16 11:06:32;;;;;;;3.40;1.67;;;;;;;;;;4971540;28;20295;-58
2021/12/16 11:09:17;;;;;;;3.43;2.00;;;;;;;;;;4970407;28;20387;-58
2021/12/16 11:11:44;;;;;;;2.17;1.52;;;;;;;;;;4970250;28;20760;-58
2021/12/16 11:14:11;;;;;;;2.70;1.47;;;;;;;;;;4970298;28;20398;-59
2021/12/16 11:16:38;;;;;;;3.50;2.20;;;;;;;;;;4974371;28;20257;-58
2021/12/16 11:19:06;;;;;;;3.60;1.87;;;;;;;;;;4974907;28;20296;-58
2021/12/16 11:21:40;;;;;;;4.30;1.80;;;;;;;;;;4974930;28;20297;-58
2021/12/16 11:24:23;;;;;;;2.97;1.80;;;;;;;;;;4974779;28;20260;-57
2021/12/16 11:26:51;;;;;;;3.87;1.93;;;;;;;;;;4974733;28;20260;-58
2021/12/16 11:29:18;;;;;;;3.10;1.73;;;;;;;;;;4969769;28;20807;-58
2021/12/16 11:31:48;;;;;;;5.20;2.23;;;;;;;;;;4969784;28;20269;-58
2021/12/16 11:34:16;;;;;;;2.90;1.80;;;;;;;;;;4969737;28;20363;-58
2021/12/16 11:36:46;;;;;;;2.93;1.70;;;;;;;;;;4969622;28;20272;-58
2021/12/16 11:39:16;;;;;;;3.20;2.00;;;;;;;;;;4974660;28;20292;-58
2021/12/16 11:41:43;;;;;;;7.03;1.93;;;;;;;;;;4974563;28;20605;-58
2021/12/16 11:44:29;;;;;;;4.00;1.80;;;;;;;;;;4974746;28;20253;-58
2021/12/16 11:46:58;;;;;;;3.10;1.97;;;;;;;;;;4974813;28;20268;-57
2021/12/16 11:49:27;;;;;;;3.63;1.90;;;;;;;;;;4973404;28;20265;-58
2021/12/16 11:52:01;;;;;;;3.00;1.80;;;;;;;;;;4968915;28;20482;-59
2021/12/16 11:54:30;;;;;;;3.20;1.80;;;;;;;;;;4969385;28;20272;-58
2021/12/16 11:56:57;;;;;;;3.80;1.87;;;;;;;;;;4968960;28;20272;-58
2021/12/16 11:59:30;;;;;;;3.67;1.90;;;;;;;;;;4970003;28;20787;-58
2021/12/16 12:01:58;;;;;;;3.07;1.70;;;;;;;;;;4974112;28;20261;-58
2021/12/16 12:04:27;;;;;;;2.73;1.60;;;;;;;;;;4974250;28;20311;-57
2021/12/16 12:06:54;;;;;;;5.23;2.20;;;;;;;;;;4974159;28;20296;-58
2021/12/16 12:09:21;;;;;;;3.03;1.70;;;;;;;;;;4974536;28;20256;-57
2021/12/16 12:11:48;;;;;;;3.80;1.87;;;;;;;;;;4972376;28;20819;-58
2021/12/16 12:14:20;;;;;;;3.77;2.23;;;;;;;;;;4968821;28;20265;-58
2021/12/16 12:16:49;;;;;;;2.27;1.60;;;;;;;;;;4968717;28;20272;-58
2021/12/16 12:19:19;;;;;;;2.73;1.70;;;;;;;;;;4968609;28;20301;-58
2021/12/16 12:21:57;;;;;;;5.60;1.90;;;;;;;;;;4970161;28;20264;-58
2021/12/16 12:24:26;;;;;;;3.80;1.90;;;;;;;;;;4973982;28;20276;-57
2021/12/16 12:27:07;;;;;;;4.33;2.27;;;;;;;;;;4973800;28;20709;-58
2021/12/16 12:29:39;;;;;;;4.57;2.17;;;;;;;;;;4973993;28;20263;-57
2021/12/16 12:32:08;;;;;;;3.83;1.70;;;;;;;;;;4973479;28;20273;-58
2021/12/16 12:34:35;;;;;;;12.33;7.60;;;;;;;;;;4971117;28;20264;-58
2021/12/16 12:37:04;;;;;;;3.83;2.60;;;;;;;;;;4968465;28;20311;-58
2021/12/16 12:39:36;;;;;;;2.77;1.80;;;;;;;;;;4968527;28;20293;-58
2021/12/16 12:42:03;;;;;;;5.03;2.63;;;;;;;;;;4968689;28;20276;-58
2021/12/16 12:44:30;;;;;;;4.10;1.67;;;;;;;;;;4971376;28;20798;-58
2021/12/16 12:47:00;;;;;;;3.37;1.87;;;;;;;;;;4973526;28;20277;-57
2021/12/16 12:49:29;;;;;;;4.00;1.97;;;;;;;;;;4973559;28;20271;-58
2021/12/16 12:52:16;;;;;;;3.00;1.70;;;;;;;;;;4972885;28;20798;-58
2021/12/16 12:54:45;;;;;;;4.33;2.10;;;;;;;;;;4973181;28;20316;-58
2021/12/16 12:57:32;;;;;;;4.50;1.97;;;;;;;;;;4969638;28;20331;-58
2021/12/16 12:59:59;;;;;;;4.07;1.77;;;;;;;;;;4968313;28;20798;-58
2021/12/16 13:02:33;;;;;;;5.80;3.17;;;;;;;;;;4968035;28;20265;-58
2021/12/16 13:05:05;;;;;;;6.00;2.97;;;;;;;;;;4967963;28;20315;-58
2021/12/16 13:07:34;;;;;;;6.80;2.60;;;;;;;;;;4972735;28;20705;-57
2021/12/16 13:10:19;;;;;;;5.73;2.27;;;;;;;;;;4972774;28;20260;-58
2021/12/16 13:12:56;;;;;;;6.63;2.67;;;;;;;;;;4972915;28;20757;-58
2021/12/16 13:15:31;;;;;;;5.00;2.07;;;;;;;;;;4970246;28;20279;-58
2021/12/16 13:23:40;;;;;;;4.43;2.00;;;;;;;;;;4953555;28;20323;-58
2021/12/16 13:26:33;;;;;;;6.97;2.40;;;;;;;;;;4966538;28;20269;-59
2021/12/16 13:29:15;;;;;;;4.43;2.37;;;;;;;;;;4968132;28;20276;-58
2021/12/16 13:31:52;;;;;;;5.90;2.23;;;;;;;;;;4971237;28;20260;-59
2021/12/16 13:34:26;;;;;;;7.00;2.27;;;;;;;;;;4972178;28;20261;-58
2021/12/16 13:36:57;;;;;;;16.23;2.17;;;;;;;;;;4970877;28;20294;-58
2021/12/16 13:39:29;;;;;;;5.67;2.77;;;;;;;;;;4971131;28;20035;-58
2021/12/16 13:42:06;;;;;;;7.60;3.20;;;;;;;;;;4967989;28;20617;-58
2021/12/16 13:44:39;;;;;;;7.17;3.97;;;;;;;;;;4967727;28;20280;-58
2021/12/16 13:58:55;;;;;;;4.47;2.30;;;;;;;;;;4972784;28;20085;-58
2021/12/16 14:04:35;;;;;;;3.43;2.10;;;;;;;;;;4967707;28;20272;-58
2021/12/16 14:07:13;;;;;;;4.30;1.57;;;;;;;;;;4960293;28;20300;-58
2021/12/16 14:09:54;;;;;;;2.50;1.30;;;;;;;;;;4966039;28;20273;-58
2021/12/16 14:15:43;;;;;;;2.30;1.50;;;;;;;;;;4973008;28;20348;-58
2021/12/16 14:18:14;;;;;;;3.80;1.70;;;;;;;;;;4969321;28;20047;-58
2021/12/16 14:24:13;;;;;;;5.03;1.87;;;;;;;;;;4975102;28;20901;-60
2021/12/16 14:27:03;;;;;;;2.77;1.73;;;;;;;;;;4951126;29;20063;-58
2021/12/16 14:35:24;;;;;;;9.00;3.67;;;;;;;;;;4972557;28;20082;-58
2021/12/16 14:38:09;;;;;;;8.63;3.50;;;;;;;;;;4975088;28;20037;-58
2021/12/16 14:41:05;;;;;;;8.07;3.10;;;;;;;;;;4975831;28;20066;-58
2021/12/16 14:43:39;;;;;;;7.07;3.00;;;;;;;;;;4975723;28;20042;-58
2021/12/16 14:46:08;;;;;;;7.43;2.70;;;;;;;;;;4976106;28;20656;-58
2021/12/16 14:48:38;;;;;;;6.90;3.00;;;;;;;;;;4970345;28;20036;-59
2021/12/16 14:51:13;;;;;;;14.67;4.13;;;;;;;;;;4969945;28;20027;-58
2021/12/16 14:53:44;;;;;;;9.57;3.65;;;;;;;;;;4969238;28;20022;-58
2021/12/16 14:56:20;;;;;;;7.73;4.07;;;;;;;;;;4969846;28;20042;-58
2021/12/16 14:58:57;;;;;;;7.43;4.10;;;;;;;;;;4975388;28;20126;-58
2021/12/16 15:01:26;;;;;;;10.10;3.80;;;;;;;;;;4975453;28;20037;-59
2021/12/16 15:03:53;;;;;;;7.77;3.57;;;;;;;;;;4974798;28;20553;-58
2021/12/16 15:06:26;;;;;;;10.37;3.97;;;;;;;;;;4975892;28;20078;-58
2021/12/16 15:09:17;;;;;;;7.17;3.10;;;;;;;;;;4974006;28;20082;-59
2021/12/16 15:11:54;;;;;;;9.33;4.10;;;;;;;;;;4950754;29;20110;-59
2021/12/16 15:14:41;;;;;;;10.30;4.33;;;;;;;;;;4968451;28;20045;-59
2021/12/16 15:17:25;;;;;;;11.00;4.73;;;;;;;;;;4969936;28;20165;-59
2021/12/16 15:37:09;;;;;;;17.17;5.17;;;;;;;;;;4936087;28;20031;-59
2021/12/16 15:40:14;;;;;;;8.70;5.50;;;;;;;;;;4969426;28;20034;-59
2021/12/16 15:42:52;;;;;;;12.07;4.87;;;;;;;;;;4973552;28;20068;-59
2021/12/16 15:45:24;;;;;;;12.60;5.50;;;;;;;;;;4974889;28;20374;-61
2021/12/16 15:47:54;;;;;;;17.33;5.83;;;;;;;;;;4969943;28;20031;-60
2021/12/16 15:50:24;;;;;;;8.63;4.70;;;;;;;;;;4974662;28;20097;-62
2021/12/16 15:52:52;;;;;;;12.27;5.47;;;;;;;;;;4974294;28;20030;-61
2021/12/16 15:55:30;;;;;;;13.13;4.33;;;;;;;;;;4968830;28;20034;-61
2021/12/16 15:58:01;;;;;;;10.10;4.90;;;;;;;;;;4969387;28;20031;-62
2021/12/16 16:00:29;;;;;;;8.80;4.60;;;;;;;;;;4969670;28;20019;-62
2021/12/16 16:02:57;;;;;;;9.80;4.37;;;;;;;;;;4968860;28;20030;-62
2021/12/16 16:05:24;;;;;;;7.87;4.50;;;;;;;;;;4974002;28;20114;-62
2021/12/16 16:07:58;;;;;;;9.50;4.73;;;;;;;;;;4974192;28;20030;-61
2021/12/16 16:10:24;;;;;;;9.20;4.93;;;;;;;;;;4974293;28;20023;-61
2021/12/16 16:12:52;;;;;;;6.97;3.60;;;;;;;;;;4974049;28;20109;-62
2021/12/16 16:15:22;;;;;;;7.37;3.30;;;;;;;;;;4973502;28;20026;-62
2021/12/16 16:18:34;;;;;;;8.40;4.10;;;;;;;;;;4968708;28;20019;-62
2021/12/16 16:20:49;;;;;;;7.87;3.87;;;;;;;;;;4965986;28;20490;-62
2021/12/16 16:23:16;;;;;;;6.63;3.43;;;;;;;;;;4969137;28;20031;-63
2021/12/16 16:25:44;;;;;;;9.90;3.17;;;;;;;;;;4969738;28;20033;-60
2021/12/16 16:28:15;;;;;;;5.50;3.27;;;;;;;;;;4973649;28;20321;-61
2021/12/16 16:30:43;;;;;;;8.40;4.13;;;;;;;;;;4974129;28;20030;-61
2021/12/16 16:33:12;;;;;;;12.87;4.63;;;;;;;;;;4973400;28;20038;-61
2021/12/16 16:35:44;;;;;;;5.67;3.40;;;;;;;;;;4973838;28;20072;-62
2021/12/16 16:38:12;;;;;;;7.67;3.70;;;;;;;;;;4970245;28;20379;-62
2021/12/16 16:40:41;;;;;;;7.47;3.30;;;;;;;;;;4969178;28;20808;-62
2021/12/16 16:43:26;;;;;;;6.87;3.73;;;;;;;;;;4968483;28;20034;-61
2021/12/16 16:45:54;;;;;;;5.17;3.53;;;;;;;;;;4968053;28;20081;-62
2021/12/16 16:48:47;;;;;;;8.27;2.80;;;;;;;;;;4970280;28;20081;-61
2021/12/16 16:51:19;;;;;;;5.33;3.20;;;;;;;;;;4973333;28;20042;-61
2021/12/16 16:53:49;;;;;;;4.70;2.93;;;;;;;;;;4973505;28;20154;-61
2021/12/16 16:56:16;;;;;;;14.80;3.50;;;;;;;;;;4973483;28;20082;-61
2021/12/16 16:58:43;;;;;;;4.70;2.60;;;;;;;;;;4973253;28;20038;-61
2021/12/16 17:01:10;;;;;;;5.03;2.80;;;;;;;;;;4970522;28;20114;-61
2021/12/16 17:03:38;;;;;;;6.63;3.03;;;;;;;;;;4968473;28;20421;-61
2021/12/16 17:06:07;;;;;;;4.97;2.70;;;;;;;;;;4968377;28;20035;-61
2021/12/16 17:08:36;;;;;;;9.00;2.97;;;;;;;;;;4967969;28;20485;-62
2021/12/16 17:11:03;;;;;;;8.57;2.47;;;;;;;;;;4970305;28;20386;-61
2021/12/16 17:13:57;;;;;;;4.30;2.70;;;;;;;;;;4973331;28;20023;-61
2021/12/16 17:19:15;;;;;;;3.53;1.70;;;;;;;;;;4973184;28;20072;-61
2021/12/16 17:21:47;;;;;;;6.47;2.10;;;;;;;;;;4973013;28;20107;-61
2021/12/16 17:24:16;;;;;;;4.00;2.47;;;;;;;;;;4968052;28;20488;-62
2021/12/16 17:26:51;;;;;;;4.27;2.70;;;;;;;;;;4968513;28;20027;-61
2021/12/16 17:29:26;;;;;;;6.97;2.37;;;;;;;;;;4968360;28;20027;-61
2021/12/16 17:31:59;;;;;;;5.73;2.67;;;;;;;;;;4968156;28;20129;-61
2021/12/16 17:34:28;;;;;;;4.37;2.40;;;;;;;;;;4972954;28;20432;-61
2021/12/16 17:37:01;;;;;;;4.13;1.70;;;;;;;;;;4973462;28;20027;-61
2021/12/16 17:39:32;;;;;;;1.20;0.80;;;;;;;;;;4972832;28;20038;-60
2021/12/16 17:42:01;;;;;;;2.67;1.70;;;;;;;;;;4972887;28;20035;-60
2021/12/16 17:44:37;;;;;;;2.83;1.90;;;;;;;;;;4971869;28;20367;-59
2021/12/16 17:47:10;;;;;;;4.37;1.83;;;;;;;;;;4966964;28;20090;-59
2021/12/16 17:49:36;;;;;;;2.83;1.27;;;;;;;;;;4966059;28;20049;-59
2021/12/16 17:52:05;;;;;;;3.20;1.90;;;;;;;;;;4966005;28;20550;-59
2021/12/16 17:54:39;;;;;;;5.40;1.53;;;;;;;;;;4966208;28;20047;-59
2021/12/16 17:57:06;;;;;;;2.60;1.70;;;;;;;;;;4973279;28;20089;-60
2021/12/16 17:59:34;;;;;;;4.00;1.73;;;;;;;;;;4974564;28;20126;-59
2021/12/16 18:02:02;;;;;;;5.53;1.53;;;;;;;;;;4974516;28;20034;-59
2021/12/16 18:04:29;;;;;;;3.03;1.30;;;;;;;;;;4976289;28;20034;-59
2021/12/16 18:06:58;;;;;;;3.13;1.40;;;;;;;;;;4974797;28;20471;-59
2021/12/16 18:09:27;;;;;;;4.00;1.50;;;;;;;;;;4970447;28;20030;-60
2021/12/16 18:11:53;;;;;;;1.87;0.97;;;;;;;;;;4970613;28;20517;-60
2021/12/16 18:14:29;;;;;;;2.13;1.00;;;;;;;;;;4970706;28;20026;-60
2021/12/16 18:16:57;;;;;;;1.40;0.80;;;;;;;;;;4971499;28;20042;-59
2021/12/16 18:19:30;;;;;;;4.93;1.00;;;;;;;;;;4976126;28;20038;-59
2021/12/16 18:22:00;;;;;;;3.87;1.70;;;;;;;;;;4975761;28;20035;-59
2021/12/16 18:24:40;;;;;;;4.80;1.83;;;;;;;;;;4976206;28;20081;-59